Terminal Aerodrome Forecast
Issued by NWS Wichita, KS

Home | Current Version | Previous Version | Text Only | Print | Product List | Glossary On
Versions: 1 2 3 4 5 6 7 8 9 10 11 12 13
000
FTUS43 KICT 300521
TAFICT
TAF
KICT 300521Z 3006/0106 30007KT P6SM BKN060
     FM301100 30009KT P6SM SCT100
     FM301600 30013KT P6SM FEW200
     FM301800 30019G25KT P6SM FEW250
     FM010000 30008KT P6SM FEW250=

USA.gov is the U.S. government's official web portal to all federal, state and local government web resources and services.